createdAt,value
2018-06-16T00:02:08.372Z,20.43
2018-06-16T00:04:38.819Z,20.42
2018-06-16T00:07:09.275Z,20.42
2018-06-16T00:09:39.683Z,20.42
2018-06-16T00:12:09.753Z,20.40
2018-06-16T00:14:40.031Z,20.43
2018-06-16T00:17:10.336Z,20.43
2018-06-16T00:19:40.867Z,20.43
2018-06-16T00:22:12.234Z,20.44
2018-06-16T00:24:42.797Z,20.45
2018-06-16T00:27:13.240Z,20.45
2018-06-16T00:29:43.762Z,20.46
2018-06-16T00:32:14.108Z,20.47
2018-06-16T00:34:44.501Z,20.48
2018-06-16T00:37:14.712Z,20.47
2018-06-16T00:39:45.040Z,20.46
2018-06-16T00:42:15.955Z,20.45
2018-06-16T00:44:46.673Z,20.46
2018-06-16T00:47:16.724Z,20.42
2018-06-16T00:49:47.438Z,20.39
2018-06-16T00:52:17.690Z,20.34
2018-06-16T00:54:48.414Z,20.30
2018-06-16T00:57:29.756Z,20.27
2018-06-16T00:59:59.784Z,20.26
2018-06-16T01:02:30.165Z,20.27
2018-06-16T01:05:00.441Z,20.27
2018-06-16T01:07:30.868Z,20.25
2018-06-16T01:10:00.888Z,20.21
2018-06-16T01:12:31.157Z,20.18
2018-06-16T01:15:01.441Z,20.16
2018-06-16T01:17:31.685Z,20.13
2018-06-16T01:20:02.664Z,20.11
2018-06-16T01:22:33.172Z,20.12
2018-06-16T01:25:09.946Z,20.11
2018-06-16T01:27:40.139Z,20.10
2018-06-16T01:30:10.500Z,20.07
2018-06-16T01:32:40.979Z,20.07
2018-06-16T01:35:11.305Z,20.03
2018-06-16T01:37:41.863Z,20.01
2018-06-16T01:40:12.119Z,20.04
2018-06-16T01:42:43.028Z,20.05
2018-06-16T01:45:13.440Z,20.05
2018-06-16T01:47:43.843Z,20.03
2018-06-16T01:50:14.578Z,20.04
2018-06-16T01:52:44.990Z,20.05
2018-06-16T01:55:15.544Z,20.05
2018-06-16T01:57:45.964Z,20.03
2018-06-16T02:00:16.404Z,20.02
2018-06-16T02:02:46.879Z,20.01
2018-06-16T02:05:17.769Z,19.97
2018-06-16T02:07:48.062Z,19.95
2018-06-16T02:10:18.222Z,19.94
2018-06-16T02:12:48.492Z,19.92
2018-06-16T02:15:18.811Z,19.86
2018-06-16T02:17:49.211Z,19.85
2018-06-16T02:20:19.524Z,19.82
2018-06-16T02:22:49.582Z,19.79
2018-06-16T02:25:20.131Z,19.77
2018-06-16T02:27:50.860Z,19.76
2018-06-16T02:30:21.346Z,19.75
2018-06-16T02:32:51.480Z,19.73
2018-06-16T02:35:21.763Z,19.68
2018-06-16T02:37:52.559Z,19.65
2018-06-16T02:40:23.002Z,19.62
2018-06-16T02:42:53.228Z,19.59
2018-06-16T02:45:23.758Z,19.57
2018-06-16T02:47:54.417Z,19.51
2018-06-16T02:50:24.822Z,19.50
2018-06-16T02:52:55.726Z,19.48
2018-06-16T02:55:26.255Z,19.46
2018-06-16T02:57:56.741Z,19.46
2018-06-16T03:00:27.166Z,19.44
2018-06-16T03:02:57.698Z,19.42
2018-06-16T03:05:28.344Z,19.43
2018-06-16T03:07:58.745Z,19.43
2018-06-16T03:10:29.359Z,19.44
2018-06-16T03:12:59.748Z,19.46
2018-06-16T03:15:29.991Z,19.47
2018-06-16T03:18:00.564Z,19.49
2018-06-16T03:20:31.007Z,19.51
2018-06-16T03:23:01.380Z,19.51
2018-06-16T03:25:31.899Z,19.53
2018-06-16T03:28:02.116Z,19.54
2018-06-16T03:30:32.365Z,19.56
2018-06-16T03:33:02.526Z,19.60
2018-06-16T03:35:32.926Z,19.60
2018-06-16T03:38:03.163Z,19.64
2018-06-16T03:40:33.322Z,19.67
2018-06-16T03:43:03.503Z,19.68
2018-06-16T03:45:34.723Z,19.71
2018-06-16T03:48:05.105Z,19.76
2018-06-16T03:50:35.407Z,19.81
2018-06-16T03:53:05.857Z,19.86
2018-06-16T03:55:36.830Z,19.90
2018-06-16T03:58:07.123Z,19.95
2018-06-16T04:00:37.614Z,19.97
2018-06-16T04:03:07.929Z,20.02
2018-06-16T04:05:39.299Z,20.03
2018-06-16T04:08:09.596Z,20.05
2018-06-16T04:10:40.159Z,20.11
2018-06-16T04:13:10.470Z,20.14
2018-06-16T04:15:41.219Z,20.17
2018-06-16T04:18:11.651Z,20.16
2018-06-16T04:20:42.119Z,20.18
2018-06-16T04:23:12.447Z,20.17
2018-06-16T04:25:42.959Z,20.18
2018-06-16T04:28:13.137Z,20.14
2018-06-16T04:30:43.400Z,20.15
2018-06-16T04:33:13.817Z,20.12
2018-06-16T04:35:44.338Z,20.13
2018-06-16T04:38:15.039Z,20.10
2018-06-16T04:40:45.593Z,20.10
2018-06-16T04:43:16.011Z,20.10
2018-06-16T04:45:47.042Z,20.08
2018-06-16T04:48:17.364Z,20.11
2018-06-16T04:50:48.361Z,20.12
2018-06-16T04:53:19.146Z,20.12
2018-06-16T04:55:49.543Z,20.13
2018-06-16T04:58:19.656Z,20.11
2018-06-16T05:00:50.316Z,20.13
2018-06-16T05:03:20.492Z,20.13
2018-06-16T05:05:51.027Z,20.14
2018-06-16T05:08:21.562Z,20.13
2018-06-16T05:10:52.398Z,20.16
2018-06-16T05:13:22.691Z,20.16
2018-06-16T05:15:53.173Z,20.17
2018-06-16T05:18:23.523Z,20.18
2018-06-16T05:20:54.661Z,20.20
2018-06-16T05:23:25.120Z,20.25
2018-06-16T05:25:55.675Z,20.28
2018-06-16T05:28:26.053Z,20.34
2018-06-16T05:30:56.248Z,20.37
2018-06-16T05:33:26.885Z,20.39
2018-06-16T05:35:57.324Z,20.40
2018-06-16T05:38:27.730Z,20.43
2018-06-16T05:40:58.270Z,20.45
2018-06-16T05:43:28.413Z,20.51
2018-06-16T05:45:58.870Z,20.52
2018-06-16T05:48:29.589Z,20.56
2018-06-16T05:50:59.770Z,20.57
2018-06-16T05:53:30.744Z,20.57
2018-06-16T05:56:01.864Z,20.61
2018-06-16T05:58:32.199Z,20.68
2018-06-16T06:01:02.592Z,20.76
2018-06-16T06:03:33.005Z,20.81
2018-06-16T06:06:03.273Z,20.84
2018-06-16T06:08:34.239Z,20.87
2018-06-16T06:11:04.414Z,20.91
2018-06-16T06:13:34.598Z,20.97
2018-06-16T06:16:05.241Z,21.05
2018-06-16T06:18:35.587Z,21.03
2018-06-16T06:21:05.757Z,21.09
2018-06-16T06:23:36.014Z,21.19
2018-06-16T06:26:06.337Z,21.29
2018-06-16T06:28:37.703Z,21.35
2018-06-16T06:31:08.221Z,21.38
2018-06-16T06:33:38.491Z,21.42
2018-06-16T06:36:08.947Z,21.44
2018-06-16T06:38:39.160Z,21.36
2018-06-16T06:41:09.557Z,21.35
2018-06-16T06:43:40.025Z,21.38
2018-06-16T06:46:10.602Z,21.42
2018-06-16T06:48:41.110Z,21.35
2018-06-16T06:51:11.547Z,21.32
2018-06-16T06:53:41.712Z,21.34
2018-06-16T06:56:11.903Z,21.40
2018-06-16T06:58:42.212Z,21.48
2018-06-16T07:01:12.527Z,21.50
2018-06-16T07:03:42.991Z,21.54
2018-06-16T07:06:13.235Z,21.55
2018-06-16T07:08:43.795Z,21.55
2018-06-16T07:11:14.542Z,21.55
2018-06-16T07:13:45.254Z,21.59
2018-06-16T07:16:15.531Z,21.64
2018-06-16T07:18:46.548Z,21.66
2018-06-16T07:21:17.037Z,21.66
2018-06-16T07:23:47.240Z,21.72
2018-06-16T07:26:17.504Z,21.74
2018-06-16T07:28:47.720Z,21.69
2018-06-16T07:31:18.219Z,21.67
2018-06-16T07:33:48.345Z,21.72
2018-06-16T07:36:18.958Z,21.82
2018-06-16T07:38:49.195Z,21.87
2018-06-16T07:41:19.562Z,21.95
2018-06-16T07:43:50.451Z,22.00
2018-06-16T07:46:20.630Z,22.04
2018-06-16T07:48:51.119Z,22.04
2018-06-16T07:51:21.351Z,22.08
2018-06-16T07:53:51.562Z,22.13
2018-06-16T07:56:21.844Z,22.22
2018-06-16T07:58:52.659Z,22.17
2018-06-16T08:01:23.418Z,22.20
2018-06-16T08:03:53.831Z,22.26
2018-06-16T08:06:24.169Z,22.32
2018-06-16T08:08:54.570Z,22.36
2018-06-16T08:11:25.328Z,22.48
2018-06-16T08:13:55.595Z,22.55
2018-06-16T08:16:26.253Z,22.60
2018-06-16T08:18:57.787Z,22.71
2018-06-16T08:21:28.215Z,22.81
2018-06-16T08:23:58.555Z,22.86
2018-06-16T08:26:29.047Z,22.96
2018-06-16T08:28:59.705Z,23.07
2018-06-16T08:31:30.165Z,23.08
2018-06-16T08:34:00.431Z,23.11
2018-06-16T08:36:30.963Z,23.21
2018-06-16T08:39:02.010Z,23.35
2018-06-16T08:41:32.055Z,23.46
2018-06-16T08:44:02.500Z,23.52
2018-06-16T08:46:32.845Z,23.57
2018-06-16T08:49:03.195Z,23.58
2018-06-16T08:51:35.463Z,23.61
2018-06-16T08:54:06.469Z,23.67
2018-06-16T08:56:36.898Z,23.72
2018-06-16T08:59:07.050Z,23.84
2018-06-16T09:01:37.317Z,23.85
2018-06-16T09:04:07.614Z,23.88
2018-06-16T09:06:37.736Z,23.90
2018-06-16T09:09:09.226Z,23.97
2018-06-16T09:11:40.260Z,24.04
2018-06-16T09:14:10.193Z,24.11
2018-06-16T09:16:40.586Z,24.23
2018-06-16T09:19:10.893Z,24.41
2018-06-16T09:21:41.377Z,24.53
2018-06-16T09:24:11.706Z,24.62
2018-06-16T09:26:42.022Z,24.77
2018-06-16T09:29:12.351Z,24.87
2018-06-16T09:31:42.866Z,25.08
2018-06-16T09:34:13.622Z,25.23
2018-06-16T09:36:44.061Z,25.30
2018-06-16T09:39:14.446Z,25.38
2018-06-16T09:41:44.883Z,25.48
2018-06-16T09:44:15.157Z,25.66
2018-06-16T09:46:45.447Z,25.73
2018-06-16T09:49:15.806Z,25.78
2018-06-16T09:51:46.005Z,25.93
2018-06-16T09:54:16.292Z,25.98
2018-06-16T09:56:47.369Z,26.23
2018-06-16T09:59:17.513Z,26.47
2018-06-16T10:01:47.931Z,26.69
2018-06-16T10:04:18.312Z,26.66
2018-06-16T10:06:48.660Z,26.66
2018-06-16T10:09:19.331Z,26.74
2018-06-16T10:11:49.932Z,27.02
2018-06-16T10:14:20.473Z,27.33
2018-06-16T10:16:50.815Z,27.54
2018-06-16T10:19:21.147Z,27.70
2018-06-16T10:21:51.391Z,27.79
2018-06-16T10:24:21.504Z,27.93
2018-06-16T10:26:51.738Z,28.16
2018-06-16T10:29:21.947Z,28.33
2018-06-16T10:31:52.843Z,28.55
2018-06-16T10:34:23.211Z,28.74
2018-06-16T10:36:53.425Z,28.97
2018-06-16T10:39:23.762Z,29.10
2018-06-16T10:41:53.856Z,29.33
2018-06-16T10:44:24.330Z,29.45
2018-06-16T10:46:54.723Z,29.41
2018-06-16T10:49:25.065Z,28.96
2018-06-16T10:51:55.275Z,28.57
2018-06-16T10:54:25.828Z,28.30
2018-06-16T10:56:56.924Z,28.08
2018-06-16T10:59:27.372Z,27.94
2018-06-16T11:01:57.725Z,27.71
2018-06-16T11:04:27.988Z,27.55
2018-06-16T11:06:58.500Z,27.48
2018-06-16T11:09:29.113Z,27.36
2018-06-16T11:11:59.207Z,27.34
2018-06-16T11:14:29.580Z,27.20
2018-06-16T11:17:00.125Z,27.13
2018-06-16T11:19:30.363Z,27.12
2018-06-16T11:22:00.589Z,27.08
2018-06-16T11:24:32.684Z,26.99
2018-06-16T11:27:03.127Z,26.94
2018-06-16T11:29:33.473Z,26.91
2018-06-16T11:32:03.755Z,26.85
2018-06-16T11:34:33.915Z,26.89
2018-06-16T11:37:04.255Z,27.01
2018-06-16T11:39:34.497Z,27.25
2018-06-16T11:42:04.911Z,27.32
2018-06-16T11:44:35.384Z,27.31
2018-06-16T11:47:05.758Z,27.37
2018-06-16T11:49:36.085Z,27.39
2018-06-16T11:52:06.447Z,27.42
2018-06-16T11:54:36.986Z,27.28
2018-06-16T11:57:07.576Z,27.22
2018-06-16T11:59:38.047Z,27.13
2018-06-16T12:02:08.575Z,26.88
2018-06-16T12:04:39.431Z,26.68
2018-06-16T12:07:10.996Z,26.54
2018-06-16T12:09:40.972Z,26.47
2018-06-16T12:12:11.417Z,26.32
2018-06-16T12:14:41.592Z,26.06
2018-06-16T12:17:11.839Z,25.94
2018-06-16T12:19:42.308Z,25.83
2018-06-16T12:22:12.935Z,25.71
2018-06-16T12:24:43.324Z,25.53
2018-06-16T12:27:13.980Z,25.49
2018-06-16T12:29:44.284Z,25.49
2018-06-16T12:32:14.931Z,25.48
2018-06-16T12:34:46.064Z,25.42
2018-06-16T12:37:16.528Z,25.42
2018-06-16T12:39:46.768Z,25.42
2018-06-16T12:42:17.276Z,25.39
2018-06-16T12:44:47.465Z,25.32
2018-06-16T12:47:21.035Z,25.34
2018-06-16T12:49:51.622Z,25.33
2018-06-16T12:52:21.811Z,25.36
2018-06-16T12:54:52.232Z,25.37
2018-06-16T12:57:22.971Z,25.44
2018-06-16T12:59:53.656Z,25.49
2018-06-16T13:02:24.737Z,25.58
2018-06-16T13:04:55.962Z,25.66
2018-06-16T13:07:26.543Z,25.74
2018-06-16T13:09:58.906Z,25.84
2018-06-16T13:12:29.356Z,25.91
2018-06-16T13:14:59.614Z,25.91
2018-06-16T13:17:30.069Z,25.90
2018-06-16T13:20:00.436Z,25.91
2018-06-16T13:22:30.986Z,25.82
2018-06-16T13:25:02.384Z,25.80
2018-06-16T13:27:32.688Z,25.84
2018-06-16T13:30:03.387Z,25.85
2018-06-16T13:32:33.651Z,25.88
2018-06-16T13:35:10.467Z,25.93
2018-06-16T13:37:41.436Z,25.95
2018-06-16T13:40:11.869Z,25.94
2018-06-16T13:42:42.400Z,25.95
2018-06-16T13:45:13.067Z,25.93
2018-06-16T13:47:43.242Z,25.94
2018-06-16T13:50:14.278Z,25.94
2018-06-16T13:52:44.689Z,25.95
2018-06-16T13:55:15.189Z,25.91
2018-06-16T13:57:45.571Z,25.88
2018-06-16T14:00:16.456Z,25.82
2018-06-16T14:02:46.891Z,25.78
2018-06-16T14:05:17.219Z,25.71
2018-06-16T14:07:47.624Z,25.66
2018-06-16T14:10:18.286Z,25.59
2018-06-16T14:12:48.707Z,25.55
2018-06-16T14:15:19.609Z,25.50
2018-06-16T14:17:50.597Z,25.51
2018-06-16T14:20:21.249Z,25.49
2018-06-16T14:22:51.447Z,25.48
2018-06-16T14:25:22.148Z,25.47
2018-06-16T14:27:53.087Z,25.43
2018-06-16T14:30:23.846Z,25.39
2018-06-16T14:32:54.209Z,25.39
2018-06-16T14:35:24.453Z,25.33
2018-06-16T14:37:54.932Z,25.29
2018-06-16T14:40:25.875Z,25.26
2018-06-16T14:42:56.800Z,25.26
2018-06-16T14:45:28.904Z,25.23
2018-06-16T14:47:59.113Z,25.25
2018-06-16T14:50:29.818Z,25.24
2018-06-16T14:53:00.100Z,25.24
2018-06-16T14:55:30.273Z,25.28
2018-06-16T14:58:00.788Z,25.26
2018-06-16T15:00:37.855Z,25.29
2018-06-16T15:03:08.500Z,25.28
2018-06-16T15:05:38.902Z,25.29
2018-06-16T15:08:09.298Z,25.28
2018-06-16T15:10:39.547Z,25.26
2018-06-16T15:13:10.161Z,25.27
2018-06-16T15:15:41.089Z,25.29
2018-06-16T15:18:11.447Z,25.29
2018-06-16T15:20:42.828Z,25.32
2018-06-16T15:23:14.000Z,25.30
2018-06-16T15:25:44.403Z,25.27
2018-06-16T15:28:14.892Z,25.28
2018-06-16T15:30:45.206Z,25.31
2018-06-16T15:33:15.694Z,25.28
2018-06-16T15:35:46.144Z,25.31
2018-06-16T15:38:16.662Z,25.31
2018-06-16T15:40:47.064Z,25.31
2018-06-16T15:43:17.452Z,25.30
2018-06-16T15:45:48.519Z,25.32
2018-06-16T15:48:18.896Z,25.37
2018-06-16T15:50:49.345Z,25.37
2018-06-16T15:53:20.686Z,25.37
2018-06-16T15:55:51.131Z,25.44
2018-06-16T15:58:21.615Z,25.33
2018-06-16T16:00:52.742Z,25.35
2018-06-16T16:03:23.098Z,25.37
2018-06-16T16:05:53.908Z,25.33
2018-06-16T16:08:24.531Z,25.30
2018-06-16T16:10:55.181Z,25.30
2018-06-16T16:13:31.673Z,25.26
2018-06-16T16:16:01.886Z,25.32
2018-06-16T16:18:33.106Z,25.29
2018-06-16T16:21:03.580Z,25.27
2018-06-16T16:23:33.947Z,25.27
2018-06-16T16:26:04.566Z,25.24
2018-06-16T16:28:35.136Z,25.27
2018-06-16T16:31:05.476Z,25.23
2018-06-16T16:33:35.825Z,25.18
2018-06-16T16:36:06.390Z,25.16
2018-06-16T16:38:36.762Z,25.19
2018-06-16T16:41:07.286Z,25.12
2018-06-16T16:43:37.377Z,25.15
2018-06-16T16:46:07.735Z,25.11
2018-06-16T16:48:38.232Z,25.09
2018-06-16T16:51:09.288Z,25.01
2018-06-16T16:53:42.328Z,24.98
2018-06-16T16:56:12.746Z,24.87
2018-06-16T16:58:42.897Z,24.83
2018-06-16T17:01:13.234Z,24.81
2018-06-16T17:03:44.682Z,24.78
2018-06-16T17:06:15.022Z,24.70
2018-06-16T17:08:45.219Z,24.72
2018-06-16T17:11:15.536Z,24.72
2018-06-16T17:13:45.875Z,24.66
2018-06-16T17:16:16.316Z,24.61
2018-06-16T17:18:46.423Z,24.63
2018-06-16T17:21:17.354Z,24.62
2018-06-16T17:23:47.603Z,24.54
2018-06-16T17:26:17.799Z,24.50
2018-06-16T17:28:48.086Z,24.44
2018-06-16T17:31:18.537Z,24.43
2018-06-16T17:33:48.594Z,24.39
2018-06-16T17:36:19.108Z,24.34
2018-06-16T17:38:49.840Z,24.34
2018-06-16T17:41:20.467Z,24.34
2018-06-16T17:43:50.923Z,24.25
2018-06-16T17:46:22.418Z,24.21
2018-06-16T17:48:52.924Z,24.25
2018-06-16T17:51:23.287Z,24.22
2018-06-16T17:53:53.932Z,24.18
2018-06-16T17:56:24.103Z,24.13
2018-06-16T17:58:54.543Z,24.15
2018-06-16T18:01:24.927Z,24.10
2018-06-16T18:03:55.492Z,24.07
2018-06-16T18:06:27.347Z,24.06
2018-06-16T18:08:57.827Z,24.05
2018-06-16T18:11:27.961Z,24.00
2018-06-16T18:13:58.273Z,24.02
2018-06-16T18:16:28.730Z,24.00
2018-06-16T18:18:59.275Z,23.95
2018-06-16T18:21:29.734Z,23.91
2018-06-16T18:24:00.050Z,23.89
2018-06-16T18:26:30.282Z,23.85
2018-06-16T18:29:00.652Z,23.83
2018-06-16T18:31:31.596Z,23.86
2018-06-16T18:34:02.061Z,23.85
2018-06-16T18:36:32.528Z,23.86
2018-06-16T18:39:02.911Z,23.83
2018-06-16T18:41:33.506Z,23.82
2018-06-16T18:44:05.898Z,23.78
2018-06-16T18:46:36.742Z,23.78
2018-06-16T18:49:07.023Z,23.77
2018-06-16T18:51:37.353Z,23.73
2018-06-16T18:54:08.149Z,23.68
2018-06-16T18:56:38.311Z,23.65
2018-06-16T18:59:08.890Z,23.64
2018-06-16T19:01:39.402Z,23.61
2018-06-16T19:04:09.580Z,23.59
2018-06-16T19:06:40.188Z,23.55
2018-06-16T19:09:10.375Z,23.53
2018-06-16T19:11:41.226Z,23.53
2018-06-16T19:14:11.548Z,23.49
2018-06-16T19:16:42.868Z,23.51
2018-06-16T19:19:13.174Z,23.48
2018-06-16T19:21:43.362Z,23.47
2018-06-16T19:24:15.047Z,23.43
2018-06-16T19:26:45.421Z,23.40
2018-06-16T19:29:16.305Z,23.35
2018-06-16T19:31:48.515Z,23.34
2018-06-16T19:34:18.956Z,23.30
2018-06-16T19:36:49.120Z,23.24
2018-06-16T19:39:19.510Z,23.22
2018-06-16T19:41:49.689Z,23.20
2018-06-16T19:44:19.912Z,23.17
2018-06-16T19:46:50.277Z,23.17
2018-06-16T19:49:20.641Z,23.15
2018-06-16T19:51:50.909Z,23.11
2018-06-16T19:54:22.179Z,23.05
2018-06-16T19:56:52.516Z,23.02
2018-06-16T19:59:22.850Z,22.94
2018-06-16T20:01:53.319Z,22.95
2018-06-16T20:04:24.311Z,22.93
2018-06-16T20:06:54.459Z,22.89
2018-06-16T20:09:24.931Z,22.87
2018-06-16T20:11:55.250Z,22.87
2018-06-16T20:14:26.674Z,22.83
2018-06-16T20:16:57.176Z,22.83
2018-06-16T20:19:28.248Z,22.80
2018-06-16T20:21:58.813Z,22.77
2018-06-16T20:24:28.983Z,22.70
2018-06-16T20:26:59.140Z,22.68
2018-06-16T20:29:29.762Z,22.67
2018-06-16T20:32:00.113Z,22.65
2018-06-16T20:34:30.790Z,22.61
2018-06-16T20:37:01.204Z,22.57
2018-06-16T20:39:32.177Z,22.54
2018-06-16T20:42:02.556Z,22.51
2018-06-16T20:44:33.035Z,22.47
2018-06-16T20:47:03.529Z,22.46
2018-06-16T20:49:33.835Z,22.43
2018-06-16T20:52:04.105Z,22.39
2018-06-16T20:54:34.328Z,22.36
2018-06-16T20:57:04.780Z,22.31
2018-06-16T20:59:35.100Z,22.27
2018-06-16T21:02:05.563Z,22.20
2018-06-16T21:04:35.993Z,22.16
2018-06-16T21:07:06.421Z,22.10
2018-06-16T21:09:37.326Z,22.05
2018-06-16T21:12:07.870Z,21.99
2018-06-16T21:14:38.261Z,21.94
2018-06-16T21:17:08.793Z,21.89
2018-06-16T21:19:39.473Z,21.87
2018-06-16T21:22:10.105Z,21.82
2018-06-16T21:24:40.599Z,21.79
2018-06-16T21:27:11.534Z,21.78
2018-06-16T21:29:41.792Z,21.78
2018-06-16T21:32:13.154Z,21.78
2018-06-16T21:34:44.164Z,21.77
2018-06-16T21:37:15.741Z,21.77
2018-06-16T21:39:45.942Z,21.78
2018-06-16T21:42:15.990Z,21.78
2018-06-16T21:44:46.290Z,21.77
2018-06-16T21:47:16.586Z,21.74
2018-06-16T21:49:46.997Z,21.71
2018-06-16T21:52:18.369Z,21.72
2018-06-16T21:54:49.076Z,21.71
2018-06-16T21:57:19.739Z,21.68
2018-06-16T21:59:53.292Z,21.66
2018-06-16T22:02:23.670Z,21.64
2018-06-16T22:04:54.371Z,21.59
2018-06-16T22:07:24.766Z,21.55
2018-06-16T22:09:56.040Z,21.53
2018-06-16T22:12:26.328Z,21.47
2018-06-16T22:14:56.869Z,21.40
2018-06-16T22:17:27.795Z,21.37
2018-06-16T22:19:58.161Z,21.34
2018-06-16T22:25:04.147Z,21.27
2018-06-16T22:27:34.651Z,21.24
2018-06-16T22:30:05.121Z,21.22
2018-06-16T22:32:35.313Z,21.22
2018-06-16T22:35:11.911Z,21.21
2018-06-16T22:37:42.340Z,21.18
2018-06-16T22:40:14.042Z,21.17
2018-06-16T22:42:44.270Z,21.15
2018-06-16T22:45:16.860Z,21.13
2018-06-16T22:47:47.824Z,21.11
2018-06-16T22:50:20.064Z,21.08
2018-06-16T22:52:51.042Z,21.05
2018-06-16T22:55:21.917Z,21.04
2018-06-16T22:57:52.058Z,21.02
2018-06-16T23:00:25.102Z,20.98
2018-06-16T23:02:55.591Z,20.93
2018-06-16T23:05:26.212Z,20.92
2018-06-16T23:07:56.814Z,20.88
2018-06-16T23:10:27.316Z,20.83
2018-06-16T23:12:57.764Z,20.80
2018-06-16T23:15:28.581Z,20.78
2018-06-16T23:18:03.432Z,20.73
2018-06-16T23:20:33.816Z,20.68
2018-06-16T23:23:03.901Z,20.63
2018-06-16T23:25:36.721Z,20.56
2018-06-16T23:28:07.097Z,20.52
2018-06-16T23:30:37.343Z,20.50
2018-06-16T23:33:07.547Z,20.48
2018-06-16T23:35:37.868Z,20.43
2018-06-16T23:38:09.772Z,20.37
2018-06-16T23:40:40.411Z,20.37
2018-06-16T23:43:10.520Z,20.34
2018-06-16T23:45:40.787Z,20.31
2018-06-16T23:48:11.130Z,20.25
2018-06-16T23:50:42.315Z,20.22
2018-06-16T23:53:13.508Z,20.20
2018-06-16T23:55:48.740Z,20.17
2018-06-16T23:58:19.057Z,20.14
